Meadowbrook, Alabama
Current Conditions -  °F | °C
As of 9:53 AM on Friday 19 Dec 2014 (Local Time) from KBHM Reporting Station
Overcast Overcast  
Wind Chill: 40°   Ceiling: 25000
Heat Index: 43°   Visibility: 10mi
Dew Point: 36°   Wind: 5mph
Humidity: 76%   Direction: 350°N
Pressure: 30.25"   Gusts: NA
Location:  33.3752°N, 86.7086°W
Report Text: KBHM 191553Z 35004KT 10SM OVC250 06/02 A3025 RMK AO2 SLP246 T00610022
Loading
Personal Weather Stations






























Interactive Weather Map New forecast layout! Learn more

10-Day Weather Forecast

Advertisements
Track Severe Weather on mobile